sensor_id;sensor_type;location;lat;lon;timestamp;P1;durP1;ratioP1;P2;durP2;ratioP2
40653;SDS011;26344;45.532;9.232;2023-03-21T00:01:51;58.55;;;38.28;;
40653;SDS011;26344;45.532;9.232;2023-03-21T00:04:17;56.90;;;37.65;;
40653;SDS011;26344;45.532;9.232;2023-03-21T00:06:43;59.40;;;38.72;;
40653;SDS011;26344;45.532;9.232;2023-03-21T00:09:09;61.58;;;39.05;;
40653;SDS011;26344;45.532;9.232;2023-03-21T00:11:36;58.63;;;38.45;;
40653;SDS011;26344;45.532;9.232;2023-03-21T00:14:02;59.83;;;38.92;;
40653;SDS011;26344;45.532;9.232;2023-03-21T00:16:28;57.97;;;39.28;;
40653;SDS011;26344;45.532;9.232;2023-03-21T00:18:59;60.47;;;39.53;;
40653;SDS011;26344;45.532;9.232;2023-03-21T00:21:27;65.20;;;38.63;;
40653;SDS011;26344;45.532;9.232;2023-03-21T00:23:56;58.78;;;38.42;;
40653;SDS011;26344;45.532;9.232;2023-03-21T00:26:23;61.88;;;38.22;;
40653;SDS011;26344;45.532;9.232;2023-03-21T00:28:49;57.85;;;37.83;;
40653;SDS011;26344;45.532;9.232;2023-03-21T00:31:16;56.83;;;37.55;;
40653;SDS011;26344;45.532;9.232;2023-03-21T00:33:42;56.13;;;38.10;;
40653;SDS011;26344;45.532;9.232;2023-03-21T00:36:08;59.63;;;38.33;;
40653;SDS011;26344;45.532;9.232;2023-03-21T00:38:35;55.88;;;38.72;;
40653;SDS011;26344;45.532;9.232;2023-03-21T00:41:02;55.85;;;38.00;;
40653;SDS011;26344;45.532;9.232;2023-03-21T00:43:28;62.75;;;39.45;;
40653;SDS011;26344;45.532;9.232;2023-03-21T00:45:55;58.83;;;40.22;;
40653;SDS011;26344;45.532;9.232;2023-03-21T00:48:22;56.83;;;38.88;;
40653;SDS011;26344;45.532;9.232;2023-03-21T00:50:49;58.97;;;40.50;;
40653;SDS011;26344;45.532;9.232;2023-03-21T00:53:17;60.58;;;40.38;;
40653;SDS011;26344;45.532;9.232;2023-03-21T00:55:43;61.00;;;39.80;;
40653;SDS011;26344;45.532;9.232;2023-03-21T00:58:09;58.33;;;38.60;;
40653;SDS011;26344;45.532;9.232;2023-03-21T01:00:35;59.45;;;39.65;;
40653;SDS011;26344;45.532;9.232;2023-03-21T01:03:11;57.75;;;40.42;;
40653;SDS011;26344;45.532;9.232;2023-03-21T01:05:40;54.90;;;38.85;;
40653;SDS011;26344;45.532;9.232;2023-03-21T01:08:25;59.15;;;41.13;;
40653;SDS011;26344;45.532;9.232;2023-03-21T01:10:52;62.03;;;40.42;;
40653;SDS011;26344;45.532;9.232;2023-03-21T01:13:20;59.90;;;41.55;;
40653;SDS011;26344;45.532;9.232;2023-03-21T01:15:51;63.90;;;42.50;;
40653;SDS011;26344;45.532;9.232;2023-03-21T01:18:18;65.40;;;42.65;;
40653;SDS011;26344;45.532;9.232;2023-03-21T01:20:44;58.53;;;41.33;;
40653;SDS011;26344;45.532;9.232;2023-03-21T01:23:11;63.70;;;42.05;;
40653;SDS011;26344;45.532;9.232;2023-03-21T01:25:38;67.15;;;41.67;;
40653;SDS011;26344;45.532;9.232;2023-03-21T01:28:04;58.67;;;40.70;;
40653;SDS011;26344;45.532;9.232;2023-03-21T01:30:30;65.70;;;42.38;;
40653;SDS011;26344;45.532;9.232;2023-03-21T01:32:56;60.97;;;41.55;;
40653;SDS011;26344;45.532;9.232;2023-03-21T01:35:23;60.90;;;42.15;;
40653;SDS011;26344;45.532;9.232;2023-03-21T01:37:49;61.85;;;40.78;;
40653;SDS011;26344;45.532;9.232;2023-03-21T01:40:16;63.92;;;40.95;;
40653;SDS011;26344;45.532;9.232;2023-03-21T01:42:42;69.05;;;42.10;;
40653;SDS011;26344;45.532;9.232;2023-03-21T01:47:54;65.45;;;43.72;;
40653;SDS011;26344;45.532;9.232;2023-03-21T01:50:20;63.60;;;42.33;;
40653;SDS011;26344;45.532;9.232;2023-03-21T01:52:47;60.88;;;43.47;;
40653;SDS011;26344;45.532;9.232;2023-03-21T01:55:14;61.03;;;41.47;;
40653;SDS011;26344;45.532;9.232;2023-03-21T01:57:42;64.30;;;42.80;;
40653;SDS011;26344;45.532;9.232;2023-03-21T02:00:11;64.38;;;42.97;;
40653;SDS011;26344;45.532;9.232;2023-03-21T02:02:38;64.82;;;43.30;;
40653;SDS011;26344;45.532;9.232;2023-03-21T02:05:21;59.58;;;42.10;;
40653;SDS011;26344;45.532;9.232;2023-03-21T02:07:50;61.00;;;42.78;;
40653;SDS011;26344;45.532;9.232;2023-03-21T02:10:19;63.63;;;43.60;;
40653;SDS011;26344;45.532;9.232;2023-03-21T02:12:45;60.30;;;42.88;;
40653;SDS011;26344;45.532;9.232;2023-03-21T02:15:12;65.55;;;42.92;;
40653;SDS011;26344;45.532;9.232;2023-03-21T02:25:14;61.67;;;43.33;;
40653;SDS011;26344;45.532;9.232;2023-03-21T02:27:51;61.83;;;41.28;;
40653;SDS011;26344;45.532;9.232;2023-03-21T02:30:24;62.22;;;43.13;;
40653;SDS011;26344;45.532;9.232;2023-03-21T02:35:27;61.38;;;43.38;;
40653;SDS011;26344;45.532;9.232;2023-03-21T02:38:07;63.60;;;42.53;;
40653;SDS011;26344;45.532;9.232;2023-03-21T02:40:51;68.95;;;44.47;;
40653;SDS011;26344;45.532;9.232;2023-03-21T02:45:56;63.75;;;43.67;;
40653;SDS011;26344;45.532;9.232;2023-03-21T02:48:30;64.88;;;43.88;;
40653;SDS011;26344;45.532;9.232;2023-03-21T02:50:58;67.32;;;44.63;;
40653;SDS011;26344;45.532;9.232;2023-03-21T02:53:26;67.18;;;43.80;;
40653;SDS011;26344;45.532;9.232;2023-03-21T02:55:53;65.53;;;44.15;;
40653;SDS011;26344;45.532;9.232;2023-03-21T02:58:20;65.28;;;44.95;;
40653;SDS011;26344;45.532;9.232;2023-03-21T03:00:47;65.05;;;43.22;;
40653;SDS011;26344;45.532;9.232;2023-03-21T03:03:14;61.50;;;42.72;;
40653;SDS011;26344;45.532;9.232;2023-03-21T03:05:42;62.70;;;44.33;;
40653;SDS011;26344;45.532;9.232;2023-03-21T03:14:01;69.90;;;43.83;;
40653;SDS011;26344;45.532;9.232;2023-03-21T03:16:34;66.25;;;44.40;;
40653;SDS011;26344;45.532;9.232;2023-03-21T03:19:03;70.13;;;46.08;;
40653;SDS011;26344;45.532;9.232;2023-03-21T03:23:58;74.70;;;45.58;;
40653;SDS011;26344;45.532;9.232;2023-03-21T03:26:39;71.38;;;45.72;;
40653;SDS011;26344;45.532;9.232;2023-03-21T03:29:07;67.80;;;46.15;;
40653;SDS011;26344;45.532;9.232;2023-03-21T03:31:35;67.85;;;45.13;;
40653;SDS011;26344;45.532;9.232;2023-03-21T03:34:05;78.35;;;47.85;;
40653;SDS011;26344;45.532;9.232;2023-03-21T03:36:34;75.35;;;47.45;;
40653;SDS011;26344;45.532;9.232;2023-03-21T03:39:03;74.03;;;47.75;;
40653;SDS011;26344;45.532;9.232;2023-03-21T03:41:30;71.00;;;46.95;;
40653;SDS011;26344;45.532;9.232;2023-03-21T03:44:00;74.25;;;47.58;;
40653;SDS011;26344;45.532;9.232;2023-03-21T03:46:29;70.47;;;47.05;;
40653;SDS011;26344;45.532;9.232;2023-03-21T03:49:00;76.90;;;48.88;;
40653;SDS011;26344;45.532;9.232;2023-03-21T03:51:28;73.03;;;47.25;;
40653;SDS011;26344;45.532;9.232;2023-03-21T03:53:56;75.00;;;49.25;;
40653;SDS011;26344;45.532;9.232;2023-03-21T03:56:24;72.30;;;49.03;;
40653;SDS011;26344;45.532;9.232;2023-03-21T03:58:50;72.10;;;47.08;;
40653;SDS011;26344;45.532;9.232;2023-03-21T04:01:16;67.93;;;46.17;;
40653;SDS011;26344;45.532;9.232;2023-03-21T04:03:44;73.30;;;47.88;;
40653;SDS011;26344;45.532;9.232;2023-03-21T04:06:10;69.25;;;47.05;;
40653;SDS011;26344;45.532;9.232;2023-03-21T04:08:36;76.47;;;48.08;;
40653;SDS011;26344;45.532;9.232;2023-03-21T04:11:02;72.25;;;47.95;;
40653;SDS011;26344;45.532;9.232;2023-03-21T04:13:28;72.78;;;46.88;;
40653;SDS011;26344;45.532;9.232;2023-03-21T04:15:54;77.25;;;50.75;;
40653;SDS011;26344;45.532;9.232;2023-03-21T04:18:21;70.07;;;48.15;;
40653;SDS011;26344;45.532;9.232;2023-03-21T04:20:47;79.93;;;49.65;;
40653;SDS011;26344;45.532;9.232;2023-03-21T04:23:15;77.30;;;50.63;;
40653;SDS011;26344;45.532;9.232;2023-03-21T04:25:43;74.80;;;48.65;;
40653;SDS011;26344;45.532;9.232;2023-03-21T04:28:09;73.10;;;49.55;;
40653;SDS011;26344;45.532;9.232;2023-03-21T04:30:35;81.55;;;49.60;;
40653;SDS011;26344;45.532;9.232;2023-03-21T04:33:01;72.90;;;49.17;;
40653;SDS011;26344;45.532;9.232;2023-03-21T04:35:27;73.82;;;49.80;;
40653;SDS011;26344;45.532;9.232;2023-03-21T04:37:53;73.70;;;50.58;;
40653;SDS011;26344;45.532;9.232;2023-03-21T04:40:20;82.22;;;50.25;;
40653;SDS011;26344;45.532;9.232;2023-03-21T04:42:46;77.10;;;51.50;;
40653;SDS011;26344;45.532;9.232;2023-03-21T04:45:13;77.70;;;50.08;;
40653;SDS011;26344;45.532;9.232;2023-03-21T04:47:39;73.50;;;48.97;;
40653;SDS011;26344;45.532;9.232;2023-03-21T04:50:06;78.47;;;51.63;;
40653;SDS011;26344;45.532;9.232;2023-03-21T04:52:32;81.43;;;51.35;;
40653;SDS011;26344;45.532;9.232;2023-03-21T04:54:58;74.15;;;49.85;;
40653;SDS011;26344;45.532;9.232;2023-03-21T04:57:25;82.40;;;52.05;;
40653;SDS011;26344;45.532;9.232;2023-03-21T04:59:51;79.82;;;51.55;;
40653;SDS011;26344;45.532;9.232;2023-03-21T05:02:17;85.88;;;52.53;;
40653;SDS011;26344;45.532;9.232;2023-03-21T05:04:44;75.85;;;50.20;;
40653;SDS011;26344;45.532;9.232;2023-03-21T05:07:10;73.10;;;49.60;;
40653;SDS011;26344;45.532;9.232;2023-03-21T05:09:36;76.10;;;49.92;;
40653;SDS011;26344;45.532;9.232;2023-03-21T05:12:02;83.70;;;49.53;;
40653;SDS011;26344;45.532;9.232;2023-03-21T05:14:28;74.80;;;49.17;;
40653;SDS011;26344;45.532;9.232;2023-03-21T05:16:54;79.00;;;49.47;;
40653;SDS011;26344;45.532;9.232;2023-03-21T05:19:25;74.63;;;49.13;;
40653;SDS011;26344;45.532;9.232;2023-03-21T05:22:03;78.20;;;52.05;;
40653;SDS011;26344;45.532;9.232;2023-03-21T05:24:30;79.25;;;51.00;;
40653;SDS011;26344;45.532;9.232;2023-03-21T05:26:56;76.95;;;50.65;;
40653;SDS011;26344;45.532;9.232;2023-03-21T05:31:52;77.75;;;49.17;;
40653;SDS011;26344;45.532;9.232;2023-03-21T05:34:18;74.40;;;48.50;;
40653;SDS011;26344;45.532;9.232;2023-03-21T05:36:44;73.13;;;50.95;;
40653;SDS011;26344;45.532;9.232;2023-03-21T05:39:10;77.28;;;50.65;;
40653;SDS011;26344;45.532;9.232;2023-03-21T05:41:36;77.70;;;49.33;;
40653;SDS011;26344;45.532;9.232;2023-03-21T05:44:02;77.63;;;49.67;;
40653;SDS011;26344;45.532;9.232;2023-03-21T05:46:28;76.28;;;49.78;;
40653;SDS011;26344;45.532;9.232;2023-03-21T05:48:54;76.60;;;49.40;;
40653;SDS011;26344;45.532;9.232;2023-03-21T05:51:20;76.63;;;50.42;;
40653;SDS011;26344;45.532;9.232;2023-03-21T05:53:46;73.43;;;48.60;;
40653;SDS011;26344;45.532;9.232;2023-03-21T05:56:12;75.13;;;50.33;;
40653;SDS011;26344;45.532;9.232;2023-03-21T05:58:39;78.32;;;50.38;;
40653;SDS011;26344;45.532;9.232;2023-03-21T06:01:05;75.50;;;49.15;;
40653;SDS011;26344;45.532;9.232;2023-03-21T06:03:31;80.00;;;49.72;;
40653;SDS011;26344;45.532;9.232;2023-03-21T06:05:57;74.15;;;50.65;;
40653;SDS011;26344;45.532;9.232;2023-03-21T06:08:23;77.50;;;48.05;;
40653;SDS011;26344;45.532;9.232;2023-03-21T06:10:49;76.45;;;48.80;;
40653;SDS011;26344;45.532;9.232;2023-03-21T06:13:15;77.38;;;48.92;;
40653;SDS011;26344;45.532;9.232;2023-03-21T06:15:41;75.25;;;49.10;;
40653;SDS011;26344;45.532;9.232;2023-03-21T06:18:07;77.90;;;48.55;;
40653;SDS011;26344;45.532;9.232;2023-03-21T06:20:33;83.18;;;48.97;;
40653;SDS011;26344;45.532;9.232;2023-03-21T06:22:59;71.68;;;48.45;;
40653;SDS011;26344;45.532;9.232;2023-03-21T06:25:25;71.80;;;47.58;;
40653;SDS011;26344;45.532;9.232;2023-03-21T06:27:51;77.15;;;49.88;;
40653;SDS011;26344;45.532;9.232;2023-03-21T06:30:17;74.03;;;48.50;;
40653;SDS011;26344;45.532;9.232;2023-03-21T06:32:43;73.90;;;48.47;;
40653;SDS011;26344;45.532;9.232;2023-03-21T06:35:09;76.07;;;50.30;;
40653;SDS011;26344;45.532;9.232;2023-03-21T06:37:35;78.75;;;48.25;;
40653;SDS011;26344;45.532;9.232;2023-03-21T06:40:02;73.30;;;49.28;;
40653;SDS011;26344;45.532;9.232;2023-03-21T06:42:29;75.90;;;49.72;;
40653;SDS011;26344;45.532;9.232;2023-03-21T06:44:56;75.18;;;49.42;;
40653;SDS011;26344;45.532;9.232;2023-03-21T06:47:22;77.47;;;48.85;;
40653;SDS011;26344;45.532;9.232;2023-03-21T06:49:48;81.07;;;49.20;;
40653;SDS011;26344;45.532;9.232;2023-03-21T06:52:15;82.05;;;51.33;;
40653;SDS011;26344;45.532;9.232;2023-03-21T06:54:41;79.07;;;49.60;;
40653;SDS011;26344;45.532;9.232;2023-03-21T06:57:07;77.30;;;50.60;;
40653;SDS011;26344;45.532;9.232;2023-03-21T06:59:33;78.25;;;52.03;;
40653;SDS011;26344;45.532;9.232;2023-03-21T07:02:00;79.22;;;51.63;;
40653;SDS011;26344;45.532;9.232;2023-03-21T07:04:26;79.88;;;51.85;;
40653;SDS011;26344;45.532;9.232;2023-03-21T07:06:53;82.35;;;52.80;;
40653;SDS011;26344;45.532;9.232;2023-03-21T07:09:19;79.45;;;51.95;;
40653;SDS011;26344;45.532;9.232;2023-03-21T07:11:48;61.20;;;38.67;;
40653;SDS011;26344;45.532;9.232;2023-03-21T07:14:17;74.90;;;51.53;;
40653;SDS011;26344;45.532;9.232;2023-03-21T07:16:43;79.95;;;51.67;;
40653;SDS011;26344;45.532;9.232;2023-03-21T07:19:09;77.90;;;49.47;;
40653;SDS011;26344;45.532;9.232;2023-03-21T07:21:35;73.22;;;45.45;;
40653;SDS011;26344;45.532;9.232;2023-03-21T07:24:01;75.43;;;48.47;;
40653;SDS011;26344;45.532;9.232;2023-03-21T07:26:27;75.35;;;49.35;;
40653;SDS011;26344;45.532;9.232;2023-03-21T07:28:53;85.80;;;53.20;;
40653;SDS011;26344;45.532;9.232;2023-03-21T07:31:19;82.00;;;53.78;;
40653;SDS011;26344;45.532;9.232;2023-03-21T07:33:45;76.75;;;50.70;;
40653;SDS011;26344;45.532;9.232;2023-03-21T07:36:12;77.20;;;50.65;;
40653;SDS011;26344;45.532;9.232;2023-03-21T07:38:39;79.75;;;53.10;;
40653;SDS011;26344;45.532;9.232;2023-03-21T07:41:05;82.40;;;47.33;;
40653;SDS011;26344;45.532;9.232;2023-03-21T07:43:31;78.45;;;51.15;;
40653;SDS011;26344;45.532;9.232;2023-03-21T07:45:57;74.72;;;50.10;;
40653;SDS011;26344;45.532;9.232;2023-03-21T07:48:23;83.55;;;53.22;;
40653;SDS011;26344;45.532;9.232;2023-03-21T07:50:49;84.80;;;53.03;;
40653;SDS011;26344;45.532;9.232;2023-03-21T07:53:15;81.65;;;53.63;;
40653;SDS011;26344;45.532;9.232;2023-03-21T07:55:41;79.97;;;52.42;;
40653;SDS011;26344;45.532;9.232;2023-03-21T07:58:07;88.57;;;54.17;;
40653;SDS011;26344;45.532;9.232;2023-03-21T08:00:33;83.32;;;54.85;;
40653;SDS011;26344;45.532;9.232;2023-03-21T08:03:00;83.28;;;53.97;;
40653;SDS011;26344;45.532;9.232;2023-03-21T08:05:32;81.90;;;54.67;;
40653;SDS011;26344;45.532;9.232;2023-03-21T08:07:58;82.53;;;54.67;;
40653;SDS011;26344;45.532;9.232;2023-03-21T08:10:24;86.78;;;56.40;;
40653;SDS011;26344;45.532;9.232;2023-03-21T08:12:50;81.22;;;54.60;;
40653;SDS011;26344;45.532;9.232;2023-03-21T08:15:16;77.03;;;53.38;;
40653;SDS011;26344;45.532;9.232;2023-03-21T08:17:43;80.13;;;52.53;;
40653;SDS011;26344;45.532;9.232;2023-03-21T08:20:13;83.45;;;54.55;;
40653;SDS011;26344;45.532;9.232;2023-03-21T08:22:40;77.43;;;51.72;;
40653;SDS011;26344;45.532;9.232;2023-03-21T08:25:06;84.15;;;52.83;;
40653;SDS011;26344;45.532;9.232;2023-03-21T08:27:34;78.65;;;54.00;;
40653;SDS011;26344;45.532;9.232;2023-03-21T08:30:00;82.38;;;54.05;;
40653;SDS011;26344;45.532;9.232;2023-03-21T08:32:29;79.05;;;53.53;;
40653;SDS011;26344;45.532;9.232;2023-03-21T08:37:25;79.80;;;54.25;;
40653;SDS011;26344;45.532;9.232;2023-03-21T08:39:52;77.20;;;52.10;;
40653;SDS011;26344;45.532;9.232;2023-03-21T08:42:18;81.65;;;52.53;;
40653;SDS011;26344;45.532;9.232;2023-03-21T08:44:46;80.32;;;53.58;;
40653;SDS011;26344;45.532;9.232;2023-03-21T08:47:12;77.63;;;52.03;;
40653;SDS011;26344;45.532;9.232;2023-03-21T08:49:38;82.00;;;53.38;;
40653;SDS011;26344;45.532;9.232;2023-03-21T08:52:08;82.40;;;52.33;;
40653;SDS011;26344;45.532;9.232;2023-03-21T08:54:34;86.13;;;53.83;;
40653;SDS011;26344;45.532;9.232;2023-03-21T08:57:00;81.13;;;51.58;;
40653;SDS011;26344;45.532;9.232;2023-03-21T08:59:26;82.60;;;53.88;;
40653;SDS011;26344;45.532;9.232;2023-03-21T09:01:52;77.57;;;52.15;;
40653;SDS011;26344;45.532;9.232;2023-03-21T09:04:18;79.97;;;52.08;;
40653;SDS011;26344;45.532;9.232;2023-03-21T09:06:44;75.30;;;53.20;;
40653;SDS011;26344;45.532;9.232;2023-03-21T09:09:13;76.85;;;52.25;;
40653;SDS011;26344;45.532;9.232;2023-03-21T09:11:40;79.20;;;52.38;;
40653;SDS011;26344;45.532;9.232;2023-03-21T09:14:06;73.30;;;51.67;;
40653;SDS011;26344;45.532;9.232;2023-03-21T09:16:32;70.97;;;51.30;;
40653;SDS011;26344;45.532;9.232;2023-03-21T09:18:58;75.00;;;51.58;;
40653;SDS011;26344;45.532;9.232;2023-03-21T09:21:25;72.53;;;52.72;;
40653;SDS011;26344;45.532;9.232;2023-03-21T09:23:52;76.38;;;51.42;;
40653;SDS011;26344;45.532;9.232;2023-03-21T09:26:22;77.60;;;52.33;;
40653;SDS011;26344;45.532;9.232;2023-03-21T09:28:48;73.32;;;51.63;;
40653;SDS011;26344;45.532;9.232;2023-03-21T09:31:15;76.63;;;52.08;;
40653;SDS011;26344;45.532;9.232;2023-03-21T09:33:47;75.68;;;49.88;;
40653;SDS011;26344;45.532;9.232;2023-03-21T09:36:13;71.93;;;50.83;;
40653;SDS011;26344;45.532;9.232;2023-03-21T09:38:41;74.47;;;51.90;;
40653;SDS011;26344;45.532;9.232;2023-03-21T09:41:18;78.03;;;50.63;;
40653;SDS011;26344;45.532;9.232;2023-03-21T09:46:35;79.95;;;50.40;;
40653;SDS011;26344;45.532;9.232;2023-03-21T09:49:07;72.78;;;50.50;;
40653;SDS011;26344;45.532;9.232;2023-03-21T09:51:36;77.55;;;50.95;;
40653;SDS011;26344;45.532;9.232;2023-03-21T09:54:06;70.47;;;48.90;;
40653;SDS011;26344;45.532;9.232;2023-03-21T09:56:38;72.82;;;50.05;;
40653;SDS011;26344;45.532;9.232;2023-03-21T09:59:06;70.05;;;50.08;;
40653;SDS011;26344;45.532;9.232;2023-03-21T10:01:33;73.72;;;51.40;;
40653;SDS011;26344;45.532;9.232;2023-03-21T10:04:06;71.40;;;47.28;;
40653;SDS011;26344;45.532;9.232;2023-03-21T10:06:33;67.28;;;47.30;;
40653;SDS011;26344;45.532;9.232;2023-03-21T10:09:05;67.55;;;47.95;;
40653;SDS011;26344;45.532;9.232;2023-03-21T10:11:51;70.68;;;47.42;;
40653;SDS011;26344;45.532;9.232;2023-03-21T10:14:35;66.60;;;45.67;;
40653;SDS011;26344;45.532;9.232;2023-03-21T10:19:37;67.18;;;46.22;;
40653;SDS011;26344;45.532;9.232;2023-03-21T10:22:03;66.07;;;43.90;;
40653;SDS011;26344;45.532;9.232;2023-03-21T10:24:30;55.15;;;40.67;;
40653;SDS011;26344;45.532;9.232;2023-03-21T10:26:57;59.00;;;41.22;;
40653;SDS011;26344;45.532;9.232;2023-03-21T10:29:25;52.42;;;38.55;;
40653;SDS011;26344;45.532;9.232;2023-03-21T10:31:52;54.90;;;36.05;;
40653;SDS011;26344;45.532;9.232;2023-03-21T10:34:34;62.10;;;37.60;;
40653;SDS011;26344;45.532;9.232;2023-03-21T10:37:01;56.00;;;40.28;;
40653;SDS011;26344;45.532;9.232;2023-03-21T10:39:36;50.92;;;38.28;;
40653;SDS011;26344;45.532;9.232;2023-03-21T10:42:03;48.42;;;35.88;;
40653;SDS011;26344;45.532;9.232;2023-03-21T10:44:33;50.28;;;36.80;;
40653;SDS011;26344;45.532;9.232;2023-03-21T10:47:06;43.42;;;32.28;;
40653;SDS011;26344;45.532;9.232;2023-03-21T10:49:33;48.25;;;32.97;;
40653;SDS011;26344;45.532;9.232;2023-03-21T10:52:02;40.83;;;31.52;;
40653;SDS011;26344;45.532;9.232;2023-03-21T10:54:30;42.90;;;29.80;;
40653;SDS011;26344;45.532;9.232;2023-03-21T10:56:57;39.33;;;29.80;;
40653;SDS011;26344;45.532;9.232;2023-03-21T10:59:25;39.80;;;29.75;;
40653;SDS011;26344;45.532;9.232;2023-03-21T11:01:53;36.00;;;27.55;;
40653;SDS011;26344;45.532;9.232;2023-03-21T11:04:21;40.30;;;28.27;;
40653;SDS011;26344;45.532;9.232;2023-03-21T11:06:53;35.72;;;23.80;;
40653;SDS011;26344;45.532;9.232;2023-03-21T11:09:20;27.88;;;21.33;;
40653;SDS011;26344;45.532;9.232;2023-03-21T11:12:09;30.58;;;22.85;;
40653;SDS011;26344;45.532;9.232;2023-03-21T11:14:40;32.17;;;24.63;;
40653;SDS011;26344;45.532;9.232;2023-03-21T11:17:28;38.45;;;24.90;;
40653;SDS011;26344;45.532;9.232;2023-03-21T11:19:56;38.63;;;26.48;;
40653;SDS011;26344;45.532;9.232;2023-03-21T11:24:49;38.83;;;27.73;;
40653;SDS011;26344;45.532;9.232;2023-03-21T11:27:16;37.95;;;26.08;;
40653;SDS011;26344;45.532;9.232;2023-03-21T11:29:46;38.00;;;27.55;;
40653;SDS011;26344;45.532;9.232;2023-03-21T11:34:46;46.20;;;27.30;;
40653;SDS011;26344;45.532;9.232;2023-03-21T11:37:19;32.67;;;24.77;;
40653;SDS011;26344;45.532;9.232;2023-03-21T11:39:46;34.30;;;24.30;;
40653;SDS011;26344;45.532;9.232;2023-03-21T11:42:26;35.88;;;24.35;;
40653;SDS011;26344;45.532;9.232;2023-03-21T11:45:00;34.40;;;26.88;;
40653;SDS011;26344;45.532;9.232;2023-03-21T11:47:27;33.70;;;24.50;;
40653;SDS011;26344;45.532;9.232;2023-03-21T11:52:29;39.45;;;26.02;;
40653;SDS011;26344;45.532;9.232;2023-03-21T11:55:02;37.42;;;23.98;;
40653;SDS011;26344;45.532;9.232;2023-03-21T12:05:31;30.95;;;19.60;;
40653;SDS011;26344;45.532;9.232;2023-03-21T12:15:44;23.02;;;17.92;;
40653;SDS011;26344;45.532;9.232;2023-03-21T12:20:52;26.10;;;18.95;;
40653;SDS011;26344;45.532;9.232;2023-03-21T12:41:23;26.23;;;18.70;;
40653;SDS011;26344;45.532;9.232;2023-03-21T12:43:59;23.63;;;18.15;;
40653;SDS011;26344;45.532;9.232;2023-03-21T12:46:35;23.75;;;18.65;;
40653;SDS011;26344;45.532;9.232;2023-03-21T12:49:08;22.02;;;17.25;;
40653;SDS011;26344;45.532;9.232;2023-03-21T12:51:36;24.52;;;17.98;;
40653;SDS011;26344;45.532;9.232;2023-03-21T12:54:06;26.30;;;18.65;;
40653;SDS011;26344;45.532;9.232;2023-03-21T12:56:35;19.98;;;16.38;;
40653;SDS011;26344;45.532;9.232;2023-03-21T12:59:05;23.65;;;18.50;;
40653;SDS011;26344;45.532;9.232;2023-03-21T13:01:33;25.25;;;18.83;;
40653;SDS011;26344;45.532;9.232;2023-03-21T13:04:05;23.25;;;17.15;;
40653;SDS011;26344;45.532;9.232;2023-03-21T13:06:33;23.88;;;18.58;;
40653;SDS011;26344;45.532;9.232;2023-03-21T13:09:17;27.05;;;18.52;;
40653;SDS011;26344;45.532;9.232;2023-03-21T13:11:45;25.52;;;18.58;;
40653;SDS011;26344;45.532;9.232;2023-03-21T13:14:23;23.10;;;17.40;;
40653;SDS011;26344;45.532;9.232;2023-03-21T13:19:27;21.27;;;17.17;;
40653;SDS011;26344;45.532;9.232;2023-03-21T13:29:45;24.17;;;16.02;;
40653;SDS011;26344;45.532;9.232;2023-03-21T13:32:24;24.05;;;15.52;;
40653;SDS011;26344;45.532;9.232;2023-03-21T13:34:57;23.55;;;16.63;;
40653;SDS011;26344;45.532;9.232;2023-03-21T13:37:25;22.27;;;15.65;;
40653;SDS011;26344;45.532;9.232;2023-03-21T13:39:54;23.05;;;15.77;;
40653;SDS011;26344;45.532;9.232;2023-03-21T13:42:28;22.88;;;16.27;;
40653;SDS011;26344;45.532;9.232;2023-03-21T13:45:00;22.83;;;16.42;;
40653;SDS011;26344;45.532;9.232;2023-03-21T13:50:13;24.80;;;17.33;;
40653;SDS011;26344;45.532;9.232;2023-03-21T13:52:40;24.45;;;16.42;;
40653;SDS011;26344;45.532;9.232;2023-03-21T13:55:13;21.63;;;16.33;;
40653;SDS011;26344;45.532;9.232;2023-03-21T13:57:45;24.20;;;16.52;;
40653;SDS011;26344;45.532;9.232;2023-03-21T14:05:41;21.77;;;15.80;;
40653;SDS011;26344;45.532;9.232;2023-03-21T14:08:14;21.88;;;15.75;;
40653;SDS011;26344;45.532;9.232;2023-03-21T14:10:42;27.75;;;15.00;;
40653;SDS011;26344;45.532;9.232;2023-03-21T14:13:17;21.05;;;14.82;;
40653;SDS011;26344;45.532;9.232;2023-03-21T14:15:44;21.83;;;16.30;;
40653;SDS011;26344;45.532;9.232;2023-03-21T14:18:14;21.08;;;17.52;;
40653;SDS011;26344;45.532;9.232;2023-03-21T14:20:41;21.85;;;17.25;;
40653;SDS011;26344;45.532;9.232;2023-03-21T14:23:09;26.10;;;17.63;;
40653;SDS011;26344;45.532;9.232;2023-03-21T14:25:37;22.90;;;15.48;;
40653;SDS011;26344;45.532;9.232;2023-03-21T14:28:11;23.27;;;14.43;;
40653;SDS011;26344;45.532;9.232;2023-03-21T14:30:39;19.08;;;15.13;;
40653;SDS011;26344;45.532;9.232;2023-03-21T14:33:07;25.88;;;17.92;;
40653;SDS011;26344;45.532;9.232;2023-03-21T14:35:35;24.35;;;18.30;;
40653;SDS011;26344;45.532;9.232;2023-03-21T14:38:05;25.13;;;16.83;;
40653;SDS011;26344;45.532;9.232;2023-03-21T14:40:33;25.17;;;17.83;;
40653;SDS011;26344;45.532;9.232;2023-03-21T14:43:03;26.20;;;16.02;;
40653;SDS011;26344;45.532;9.232;2023-03-21T14:45:29;23.58;;;16.90;;
40653;SDS011;26344;45.532;9.232;2023-03-21T14:47:59;20.95;;;16.00;;
40653;SDS011;26344;45.532;9.232;2023-03-21T14:53:17;22.55;;;16.58;;
40653;SDS011;26344;45.532;9.232;2023-03-21T14:58:21;22.52;;;16.52;;
40653;SDS011;26344;45.532;9.232;2023-03-21T15:00:48;22.65;;;15.25;;
40653;SDS011;26344;45.532;9.232;2023-03-21T15:03:15;25.30;;;14.23;;
40653;SDS011;26344;45.532;9.232;2023-03-21T15:05:42;21.50;;;14.15;;
40653;SDS011;26344;45.532;9.232;2023-03-21T15:10:39;18.45;;;13.13;;
40653;SDS011;26344;45.532;9.232;2023-03-21T15:13:15;18.90;;;13.45;;
40653;SDS011;26344;45.532;9.232;2023-03-21T15:15:44;16.87;;;12.33;;
40653;SDS011;26344;45.532;9.232;2023-03-21T15:18:12;19.38;;;13.05;;
40653;SDS011;26344;45.532;9.232;2023-03-21T15:20:40;18.10;;;12.55;;
40653;SDS011;26344;45.532;9.232;2023-03-21T15:23:11;22.30;;;13.48;;
40653;SDS011;26344;45.532;9.232;2023-03-21T15:25:37;20.13;;;12.73;;
40653;SDS011;26344;45.532;9.232;2023-03-21T15:28:04;27.25;;;12.98;;
40653;SDS011;26344;45.532;9.232;2023-03-21T15:30:30;21.05;;;12.38;;
40653;SDS011;26344;45.532;9.232;2023-03-21T15:33:00;18.92;;;12.15;;
40653;SDS011;26344;45.532;9.232;2023-03-21T15:35:32;17.73;;;12.20;;
40653;SDS011;26344;45.532;9.232;2023-03-21T15:37:59;19.52;;;11.65;;
40653;SDS011;26344;45.532;9.232;2023-03-21T15:40:27;18.10;;;11.07;;
40653;SDS011;26344;45.532;9.232;2023-03-21T15:43:14;20.40;;;12.02;;
40653;SDS011;26344;45.532;9.232;2023-03-21T15:45:47;17.13;;;11.35;;
40653;SDS011;26344;45.532;9.232;2023-03-21T15:48:14;19.90;;;11.98;;
40653;SDS011;26344;45.532;9.232;2023-03-21T15:53:13;17.48;;;11.80;;
40653;SDS011;26344;45.532;9.232;2023-03-21T15:55:56;21.77;;;11.88;;
40653;SDS011;26344;45.532;9.232;2023-03-21T15:58:26;17.65;;;11.55;;
40653;SDS011;26344;45.532;9.232;2023-03-21T16:00:53;18.30;;;9.70;;
40653;SDS011;26344;45.532;9.232;2023-03-21T16:03:23;17.77;;;10.55;;
40653;SDS011;26344;45.532;9.232;2023-03-21T16:09:03;20.58;;;10.20;;
40653;SDS011;26344;45.532;9.232;2023-03-21T16:11:23;19.50;;;12.23;;
40653;SDS011;26344;45.532;9.232;2023-03-21T16:13:50;23.73;;;11.32;;
40653;SDS011;26344;45.532;9.232;2023-03-21T16:16:24;16.65;;;10.57;;
40653;SDS011;26344;45.532;9.232;2023-03-21T16:18:50;19.63;;;11.52;;